Time;durP1;ratioP1;P1;durP2;ratioP2;P2;SDS_P1;SDS_P2;PMS_P1;PMS_P2;Temp;Humidity;BMP_temperature;BMP_pressure;BME280_temperature;BME280_humidity;BME280_pressure;Samples;Min_cycle;Max_cycle;Signal;HPM_P1;HPM_P2
2021/06/07 00:00:18;;;;;;;;;;;12.60;99.90;;;;;;10571116;28;19934;-70
2021/06/07 00:05:21;;;;;;;;;;;12.60;99.90;;;;;;10572570;28;20419;-70
2021/06/07 00:10:22;;;;;;;;;;;12.60;99.90;;;;;;10551739;28;20284;-70
2021/06/07 00:15:24;;;;;;;;;;;12.60;99.90;;;;;;10565460;28;19953;-69
2021/06/07 00:20:29;;;;;;;;;;;12.50;99.90;;;;;;10568137;28;19970;-69
2021/06/07 00:25:30;;;;;;;;;;;12.50;99.90;;;;;;10574249;28;19987;-69
2021/06/07 00:30:31;;;;;;;;;;;12.50;99.90;;;;;;10597278;28;19970;-69
2021/06/07 00:35:34;;;;;;;;;;;12.40;99.90;;;;;;10579997;28;20305;-70
2021/06/07 00:40:35;;;;;;;;;;;12.40;99.90;;;;;;10567083;28;20016;-69
2021/06/07 00:45:37;;;;;;;;;;;12.40;99.90;;;;;;10573362;28;20034;-69
2021/06/07 00:50:41;;;;;;;;;;;12.40;99.90;;;;;;10595814;27;19966;-70
2021/06/07 00:55:44;;;;;;;;;;;12.30;99.90;;;;;;10579860;27;20361;-69
2021/06/07 01:00:46;;;;;;;;;;;12.20;99.90;;;;;;10581033;28;19927;-70
2021/06/07 01:05:50;;;;;;;;;;;12.10;99.90;;;;;;10563124;28;20034;-69
2021/06/07 01:10:52;;;;;;;;;;;12.00;99.90;;;;;;10569019;28;19923;-70
2021/06/07 01:15:53;;;;;;;;;;;12.00;99.90;;;;;;10587395;27;19928;-69
2021/06/07 01:20:57;;;;;;;;;;;11.90;99.90;;;;;;10581216;28;19924;-69
2021/06/07 01:26:01;;;;;;;;;;;11.90;99.90;;;;;;10564151;28;20018;-69
2021/06/07 01:31:02;;;;;;;;;;;11.80;99.90;;;;;;10571445;28;19931;-69
2021/06/07 01:36:04;;;;;;;;;;;11.80;99.90;;;;;;10564443;28;19946;-69
2021/06/07 01:41:08;;;;;;;;;;;11.60;99.90;;;;;;10568505;28;19952;-69
2021/06/07 01:46:09;;;;;;;;;;;11.50;99.90;;;;;;10574712;28;20437;-70
2021/06/07 01:51:11;;;;;;;;;;;11.40;99.90;;;;;;10566686;28;19924;-69
2021/06/07 01:56:13;;;;;;;;;;;11.40;99.90;;;;;;10567987;28;19924;-69
2021/06/07 02:01:16;;;;;;;;;;;11.30;99.90;;;;;;10561035;28;19924;-69
2021/06/07 02:06:19;;;;;;;;;;;11.30;99.90;;;;;;10576473;28;20257;-68
2021/06/07 02:11:24;;;;;;;;;;;11.20;99.90;;;;;;10580060;27;19924;-69
2021/06/07 02:16:26;;;;;;;;;;;11.20;99.90;;;;;;10583921;27;20390;-69
2021/06/07 02:21:27;;;;;;;;;;;11.10;99.90;;;;;;10568368;28;19934;-69
2021/06/07 02:26:30;;;;;;;;;;;11.10;99.90;;;;;;10569163;28;19924;-69
2021/06/07 02:31:31;;;;;;;;;;;11.10;99.90;;;;;;10575721;28;19946;-69
2021/06/07 02:36:33;;;;;;;;;;;11.00;99.90;;;;;;10576049;28;19988;-69
2021/06/07 02:41:37;;;;;;;;;;;10.90;99.90;;;;;;10572339;28;19931;-69
2021/06/07 02:46:38;;;;;;;;;;;10.90;99.90;;;;;;10571986;28;20276;-69
2021/06/07 02:51:39;;;;;;;;;;;10.80;99.90;;;;;;10562836;28;20019;-69
2021/06/07 02:56:41;;;;;;;;;;;10.80;99.90;;;;;;10575213;28;19923;-69
2021/06/07 03:01:43;;;;;;;;;;;10.80;99.90;;;;;;10579161;28;19934;-70
2021/06/07 03:06:44;;;;;;;;;;;10.90;99.90;;;;;;10596657;28;19935;-69
2021/06/07 03:11:46;;;;;;;;;;;11.00;99.90;;;;;;10559540;28;20054;-69
2021/06/07 03:16:47;;;;;;;;;;;11.10;99.90;;;;;;10564166;28;20168;-69
2021/06/07 03:21:48;;;;;;;;;;;11.10;99.90;;;;;;10564910;28;19924;-69
2021/06/07 03:26:51;;;;;;;;;;;11.10;99.90;;;;;;10568568;28;20014;-69
2021/06/07 03:31:52;;;;;;;;;;;11.20;99.90;;;;;;10578478;28;19924;-68
2021/06/07 03:36:53;;;;;;;;;;;11.20;99.90;;;;;;10578258;28;19928;-68
2021/06/07 03:41:56;;;;;;;;;;;11.10;99.90;;;;;;10575300;28;19928;-67
2021/06/07 03:46:57;;;;;;;;;;;11.20;99.90;;;;;;10567281;28;19924;-68
2021/06/07 03:51:58;;;;;;;;;;;11.30;99.90;;;;;;10581879;28;19967;-68
2021/06/07 03:57:00;;;;;;;;;;;11.30;99.90;;;;;;10589826;28;19999;-68
2021/06/07 04:02:03;;;;;;;;;;;11.40;99.90;;;;;;10570120;27;20348;-68
2021/06/07 04:07:04;;;;;;;;;;;11.50;99.90;;;;;;10582451;28;19924;-68
2021/06/07 04:12:07;;;;;;;;;;;11.90;99.90;;;;;;10580896;27;19924;-68
2021/06/07 04:17:09;;;;;;;;;;;12.60;99.90;;;;;;10588144;28;20026;-68
2021/06/07 04:22:10;;;;;;;;;;;13.90;99.90;;;;;;10584331;28;19924;-68
2021/06/07 04:27:13;;;;;;;;;;;15.60;99.60;;;;;;10582994;28;19924;-69
2021/06/07 04:32:14;;;;;;;;;;;17.70;94.30;;;;;;10582499;28;20275;-69
2021/06/07 04:37:15;;;;;;;;;;;19.40;88.20;;;;;;10570178;28;20056;-69
2021/06/07 04:42:18;;;;;;;;;;;20.80;78.80;;;;;;10576174;28;19924;-69
2021/06/07 04:47:19;;;;;;;;;;;22.10;71.30;;;;;;10580758;28;20306;-68
2021/06/07 04:52:22;;;;;;;;;;;23.30;65.40;;;;;;10560209;27;19930;-68
2021/06/07 04:57:24;;;;;;;;;;;24.30;60.80;;;;;;10572198;28;20338;-68
2021/06/07 05:02:25;;;;;;;;;;;25.20;57.70;;;;;;10558470;28;19923;-68
2021/06/07 05:07:26;;;;;;;;;;;25.70;55.20;;;;;;10565282;28;20380;-68
2021/06/07 05:12:29;;;;;;;;;;;26.70;53.40;;;;;;10570285;27;19982;-68
2021/06/07 05:17:30;;;;;;;;;;;27.60;50.60;;;;;;10568759;28;19923;-68
2021/06/07 05:22:31;;;;;;;;;;;28.00;48.80;;;;;;10564368;28;19946;-68
2021/06/07 05:27:33;;;;;;;;;;;28.70;46.70;;;;;;10573169;28;20019;-67
2021/06/07 05:32:35;;;;;;;;;;;29.50;45.10;;;;;;10574149;28;19927;-68
2021/06/07 05:37:36;;;;;;;;;;;30.20;43.60;;;;;;10566892;28;19924;-68
2021/06/07 05:42:39;;;;;;;;;;;30.90;41.90;;;;;;10568361;28;20447;-68
2021/06/07 05:47:40;;;;;;;;;;;31.10;40.60;;;;;;10564091;28;19923;-68
2021/06/07 05:52:46;;;;;;;;;;;31.30;39.40;;;;;;10577039;28;19928;-68
2021/06/07 05:57:49;;;;;;;;;;;31.30;38.40;;;;;;10567076;28;19932;-68
2021/06/07 06:02:50;;;;;;;;;;;32.00;37.60;;;;;;10547935;28;19964;-69
2021/06/07 06:07:51;;;;;;;;;;;32.50;37.10;;;;;;10552330;28;19924;-68
2021/06/07 06:12:54;;;;;;;;;;;33.00;35.70;;;;;;10569593;28;19930;-68
2021/06/07 06:17:55;;;;;;;;;;;33.80;35.20;;;;;;10566403;28;20054;-67
2021/06/07 06:22:57;;;;;;;;;;;34.50;34.00;;;;;;10552956;28;19993;-69
2021/06/07 06:27:59;;;;;;;;;;;35.30;33.20;;;;;;10566241;27;19932;-69
2021/06/07 06:33:00;;;;;;;;;;;34.90;32.30;;;;;;10565168;28;19951;-69
2021/06/07 06:38:02;;;;;;;;;;;34.90;32.10;;;;;;10539219;28;19938;-69
2021/06/07 06:43:05;;;;;;;;;;;35.20;31.90;;;;;;10545470;28;19927;-68
2021/06/07 06:48:06;;;;;;;;;;;35.40;31.40;;;;;;10542002;28;19976;-69
2021/06/07 06:53:10;;;;;;;;;;;36.00;31.20;;;;;;10557880;28;20022;-69
2021/06/07 06:58:13;;;;;;;;;;;36.30;30.30;;;;;;10558231;28;19976;-70
2021/06/07 07:03:15;;;;;;;;;;;36.70;30.20;;;;;;10569525;28;19938;-69
2021/06/07 07:08:19;;;;;;;;;;;35.00;28.70;;;;;;10572840;28;19924;-70
2021/06/07 07:13:22;;;;;;;;;;;37.10;29.20;;;;;;10576871;28;19928;-69
2021/06/07 07:18:23;;;;;;;;;;;37.00;28.80;;;;;;10572867;28;19927;-70
2021/06/07 07:23:24;;;;;;;;;;;37.00;28.70;;;;;;10580733;28;19931;-70
2021/06/07 07:28:27;;;;;;;;;;;36.90;28.60;;;;;;10577667;28;20018;-69
2021/06/07 07:33:35;;;;;;;;;;;36.90;28.50;;;;;;10582561;28;20265;-70
2021/06/07 07:38:36;;;;;;;;;;;36.80;27.90;;;;;;10572010;28;19937;-70
2021/06/07 07:43:39;;;;;;;;;;;36.30;28.30;;;;;;10582008;28;19949;-70
2021/06/07 07:48:40;;;;;;;;;;;35.90;28.50;;;;;;10568391;28;20423;-69
2021/06/07 07:53:41;;;;;;;;;;;36.50;28.50;;;;;;10580419;28;19986;-69
2021/06/07 07:58:44;;;;;;;;;;;35.90;28.50;;;;;;10582674;28;19928;-71
2021/06/07 08:03:45;;;;;;;;;;;36.00;28.60;;;;;;10568462;28;19923;-69
2021/06/07 08:08:46;;;;;;;;;;;36.30;28.20;;;;;;10579705;28;20368;-70
2021/06/07 08:13:49;;;;;;;;;;;36.80;28.30;;;;;;10587712;27;20427;-70
2021/06/07 08:18:50;;;;;;;;;;;36.10;28.00;;;;;;10554913;28;19924;-69
2021/06/07 08:23:51;;;;;;;;;;;35.90;28.50;;;;;;10569003;27;19930;-69
2021/06/07 08:28:53;;;;;;;;;;;35.60;28.00;;;;;;10544398;28;19928;-69
2021/06/07 08:33:55;;;;;;;;;;;35.60;28.70;;;;;;10555128;28;20030;-70
2021/06/07 08:38:56;;;;;;;;;;;35.50;28.10;;;;;;10554107;28;19969;-70
2021/06/07 08:43:58;;;;;;;;;;;35.20;27.90;;;;;;10576609;28;19930;-70
2021/06/07 08:48:59;;;;;;;;;;;34.90;28.20;;;;;;10564013;28;20403;-65
2021/06/07 08:54:00;;;;;;;;;;;34.40;28.40;;;;;;10580610;28;20464;-64
2021/06/07 08:59:03;;;;;;;;;;;35.40;29.10;;;;;;10574420;28;19923;-64
2021/06/07 09:04:08;;;;;;;;;;;36.10;28.20;;;;;;10568090;28;20030;-63
2021/06/07 09:09:10;;;;;;;;;;;35.70;28.10;;;;;;10580163;28;19957;-62
2021/06/07 09:14:20;;;;;;;;;;;35.80;28.50;;;;;;10577189;27;20057;-62
2021/06/07 09:19:22;;;;;;;;;;;36.00;29.10;;;;;;10567099;27;20340;-63
2021/06/07 09:24:23;;;;;;;;;;;36.10;28.10;;;;;;10582461;27;19930;-62
2021/06/07 09:29:38;;;;;;;;;;;36.10;29.10;;;;;;10559954;27;20042;-63
2021/06/07 09:34:39;;;;;;;;;;;35.60;29.00;;;;;;10574390;28;20018;-63
2021/06/07 09:39:41;;;;;;;;;;;34.40;29.70;;;;;;10574072;28;19928;-63
2021/06/07 09:44:45;;;;;;;;;;;33.70;30.20;;;;;;10574102;28;19927;-62
2021/06/07 09:49:55;;;;;;;;;;;33.90;30.20;;;;;;10572500;28;20328;-64
2021/06/07 09:56:01;;;;;;;2.65;1.13;;;33.90;29.70;;;;;;10547954;27;953222;-53
2021/06/07 10:01:09;;;;;;;3.03;1.17;;;31.50;33.10;;;;;;10518163;28;20067;-53
2021/06/07 10:06:25;;;;;;;3.25;0.98;;;29.80;34.90;;;;;;10524711;28;20052;-52
2021/06/07 10:11:29;;;;;;;2.45;1.05;;;28.80;36.20;;;;;;10517545;28;20482;-55
2021/06/07 10:16:31;;;;;;;3.90;0.95;;;28.30;36.70;;;;;;10527591;28;20493;-51
2021/06/07 10:21:32;;;;;;;2.20;0.88;;;28.00;37.20;;;;;;10527534;28;20143;-53
2021/06/07 10:26:35;;;;;;;1.95;0.88;;;27.90;37.70;;;;;;10524813;28;20166;-50
2021/06/07 10:31:39;;;;;;;2.13;0.70;;;27.80;38.10;;;;;;10502779;28;20044;-54
2021/06/07 10:36:42;;;;;;;2.28;0.63;;;27.90;38.70;;;;;;10511082;28;21466;-59
2021/06/07 10:41:46;;;;;;;1.80;0.82;;;27.90;38.90;;;;;;10503939;28;20053;-59
2021/06/07 10:46:48;;;;;;;2.15;0.70;;;28.10;39.30;;;;;;10520006;28;20076;-52
2021/06/07 10:52:06;;;;;;;2.05;0.50;;;28.20;39.50;;;;;;10508208;28;20148;-50
2021/06/07 10:57:40;;;;;;;1.13;0.60;;;28.30;40.00;;;;;;10520492;28;20480;-52
2021/06/07 11:02:45;;;;;;;2.17;0.90;;;28.40;40.10;;;;;;10400452;28;20390;-54
2021/06/07 11:08:01;;;;;;;2.53;0.90;;;28.60;40.20;;;;;;10487002;28;20056;-52
2021/06/07 11:13:05;;;;;;;1.98;0.82;;;28.70;40.40;;;;;;10504327;28;20131;-55
2021/06/07 11:18:28;;;;;;;1.38;0.63;;;28.80;40.40;;;;;;10485181;28;20083;-55
2021/06/07 11:23:31;;;;;;;1.77;0.60;;;28.90;40.50;;;;;;10488507;28;20056;-57
2021/06/07 11:28:40;;;;;;;1.95;0.77;;;29.00;40.50;;;;;;10491611;28;20513;-51
2021/06/07 11:33:49;;;;;;;1.20;0.68;;;29.10;40.60;;;;;;10486658;28;20041;-52
2021/06/07 11:39:00;;;;;;;2.05;0.95;;;29.20;40.60;;;;;;10482379;28;20350;-52
2021/06/07 11:44:03;;;;;;;1.58;0.70;;;29.30;40.60;;;;;;10485523;28;20102;-57
2021/06/07 11:49:06;;;;;;;2.40;1.15;;;29.30;40.70;;;;;;10487319;28;20131;-55
2021/06/07 11:54:40;;;;;;;1.80;0.52;;;29.30;41.40;;;;;;10476689;28;20061;-55
2021/06/07 11:59:43;;;;;;;1.08;0.50;;;29.20;40.80;;;;;;10482673;28;20526;-54
2021/06/07 12:04:44;;;;;;;1.48;0.60;;;29.10;41.20;;;;;;10482527;28;20040;-56
2021/06/07 12:09:51;;;;;;;0.85;0.60;;;28.80;40.80;;;;;;10471923;28;20060;-54
2021/06/07 12:14:53;;;;;;;1.35;0.60;;;28.60;41.20;;;;;;10483000;28;20047;-52
2021/06/07 12:19:57;;;;;;;4.53;0.85;;;28.60;41.50;;;;;;10488295;28;20040;-50
2021/06/07 12:25:12;;;;;;;3.42;0.68;;;28.40;40.90;;;;;;10487847;28;20047;-55
2021/06/07 12:30:17;;;;;;;0.93;0.88;;;28.30;41.00;;;;;;10462366;28;20041;-52
2021/06/07 12:35:19;;;;;;;1.27;0.80;;;28.10;41.30;;;;;;10479833;28;20115;-52
2021/06/07 12:40:26;;;;;;;3.85;0.75;;;28.00;41.40;;;;;;10472566;28;20072;-51
2021/06/07 12:45:33;;;;;;;2.55;0.80;;;27.90;40.90;;;;;;10484372;28;20063;-55
2021/06/07 12:50:34;;;;;;;1.30;0.80;;;27.80;41.30;;;;;;10465651;28;20040;-52
2021/06/07 12:55:38;;;;;;;1.00;0.50;;;27.80;41.40;;;;;;10462952;28;20531;-51
2021/06/07 13:00:43;;;;;;;2.60;0.40;;;27.70;41.80;;;;;;10474500;28;20685;-52
2021/06/07 13:05:45;;;;;;;1.23;0.50;;;27.70;42.00;;;;;;10476882;28;20089;-52
2021/06/07 13:10:56;;;;;;;0.95;0.43;;;27.60;41.90;;;;;;10476095;28;20040;-53
2021/06/07 13:16:11;;;;;;;0.50;0.50;;;27.60;42.40;;;;;;10485090;28;20561;-52
2021/06/07 13:21:12;;;;;;;2.55;0.40;;;27.60;42.50;;;;;;10485685;28;20220;-48
2021/06/07 13:26:20;;;;;;;;;;;27.50;42.40;;;;;;10469618;28;20045;-57
2021/06/07 13:31:23;;;;;;;1.30;0.65;;;27.50;42.00;;;;;;10476840;28;19920;-57
2021/06/07 13:36:24;;;;;;;0.98;0.50;;;27.50;42.60;;;;;;10471584;28;20484;-55
2021/06/07 13:41:25;;;;;;;1.08;0.55;;;27.50;42.90;;;;;;10474008;28;20088;-52
2021/06/07 13:46:28;;;;;;;0.73;0.50;;;27.50;43.10;;;;;;10486055;28;20059;-51
2021/06/07 13:51:31;;;;;;;0.40;0.40;;;27.50;43.30;;;;;;10471033;28;20048;-58
2021/06/07 13:56:32;;;;;;;0.90;0.60;;;27.50;43.50;;;;;;10486691;28;20068;-55
2021/06/07 14:01:35;;;;;;;;;;;27.50;43.70;;;;;;10477202;28;20049;-52
2021/06/07 14:06:38;;;;;;;1.00;0.52;;;27.50;43.70;;;;;;10483221;28;19946;-52
2021/06/07 14:11:43;;;;;;;0.80;0.50;;;27.50;43.90;;;;;;10488310;28;20041;-49
2021/06/07 14:16:46;;;;;;;1.45;0.50;;;27.40;44.00;;;;;;10483506;28;20045;-53
2021/06/07 14:24:37;;;;;;;1.33;0.60;;;27.50;44.30;;;;;;10488744;28;20119;-51
2021/06/07 14:27:11;;;;;;;1.20;0.40;;;27.50;44.40;;;;;;10469476;28;20428;-52
2021/06/07 14:32:15;;;;;;;0.52;0.47;;;27.50;44.60;;;;;;10484197;28;20057;-51
2021/06/07 14:37:16;;;;;;;1.33;0.50;;;27.50;44.80;;;;;;10488003;28;20044;-49
2021/06/07 14:42:18;;;;;;;0.90;0.68;;;27.50;45.00;;;;;;10488532;28;20135;-48
2021/06/07 14:47:22;;;;;;;1.60;1.00;;;27.50;45.20;;;;;;10479471;28;20645;-51
2021/06/07 14:52:23;;;;;;;1.95;0.93;;;27.50;45.40;;;;;;10489485;28;20052;-55
2021/06/07 14:57:24;;;;;;;;;;;27.50;45.60;;;;;;10485052;28;20064;-50
2021/06/07 15:02:27;;;;;;;2.28;1.20;;;27.50;45.60;;;;;;10484361;28;19926;-55
2021/06/07 15:07:28;;;;;;;1.30;0.95;;;27.60;45.90;;;;;;10485183;28;20173;-52
2021/06/07 15:12:29;;;;;;;;;;;27.60;46.20;;;;;;10478696;28;20086;-50
2021/06/07 15:17:32;;;;;;;2.33;1.60;;;27.60;46.30;;;;;;10492171;28;19927;-52
2021/06/07 15:22:34;;;;;;;2.60;1.48;;;27.60;46.50;;;;;;10475066;28;20424;-49
2021/06/07 15:27:36;;;;;;;2.78;1.30;;;27.60;46.80;;;;;;10485939;28;20173;-54
2021/06/07 15:32:39;;;;;;;1.58;1.02;;;27.70;47.00;;;;;;10487935;28;20119;-56
2021/06/07 15:37:40;;;;;;;1.50;0.82;;;27.60;47.10;;;;;;10507822;28;20049;-52
2021/06/07 15:42:41;;;;;;;;;;;27.70;47.30;;;;;;10488470;28;20054;-50
2021/06/07 15:47:47;;;;;;;2.83;1.30;;;27.70;47.30;;;;;;10484801;28;19928;-54
